This is the latest recevied weather packets stored in our database for station/object KGRR-WX. If no packets are shown the sender has not sent any weather packets the latest 10 day(s).
| Time | Temp. | Humidity | Pressure | Rain* | Wind** | Luminosity | Snow |
|---|---|---|---|---|---|---|---|
| 1788201905 | 27.78° C | 58% | 986.6 hPa | 0 mm | - | - | - |
| 1788201006 | 30° C | 58% | 986.7 hPa | 0 mm | - | - | - |
| 1788200106 | 29.44° C | 58% | 986.7 hPa | 0 mm | - | - | - |
| 1788199206 | 29.44° C | 58% | 986.7 hPa | 0 mm | - | - | - |
| 1788198306 | 28.89° C | 61% | 986.1 hPa | 0 mm | - | - | - |
| 1788197406 | 28.89° C | 61% | 986.2 hPa | 0 mm | - | - | - |
| 1788196506 | 28.89° C | 61% | 986.2 hPa | 0 mm | - | - | - |
| 1788195606 | 27.78° C | 61% | 986.2 hPa | 0 mm | - | - | - |
| 1788194705 | 27.22° C | 69% | 988 hPa | 0 mm | - | - | - |
| 1788193837 | -17.78° C | 100% | - | 0 mm | - | - | - |
| 1788192905 | -17.78° C | 100% | - | 0 mm | - | - | - |
| 1788192014 | 27.22° C | 63% | 986.7 hPa | 0 mm | - | - | - |
| 1788191105 | 26.67° C | 70% | 988 hPa | 0 mm | - | - | - |
| 1788190206 | 26.67° C | 67% | 987.3 hPa | 0 mm | - | - | - |
| 1788189305 | 25° C | 67% | 987.4 hPa | 0 mm | - | - | - |
| 1788188405 | 26.11° C | 67% | 987.4 hPa | 0 mm | - | - | - |
| 1788187510 | 25.56° C | 70% | 987.5 hPa | 0 mm | - | - | - |
| 1788186605 | 25° C | 70% | 986.8 hPa | 0 mm | - | - | - |
| 1788185705 | 25° C | 70% | 986.9 hPa | 0 mm | - | - | - |
| 1788184805 | 25° C | 78% | 987.7 hPa | 0 mm | - | - | - |
| 1788183904 | 24.44° C | 80% | 987.3 hPa | 0.25 mm | - | - | - |
| 1788183005 | 23.33° C | 80% | 987.3 hPa | 0.25 mm | - | - | - |
| 1788182106 | 22.78° C | 80% | 987.2 hPa | 0 mm | - | - | - |
| 1788181210 | 22.22° C | 80% | 987.2 hPa | 0 mm | - | - | - |
| 1788180307 | 22.22° C | 89% | 986.3 hPa | 0 mm | - | - | - |
* Rain latest hour (hover to see other rain measurements)
** Current wind speed in m/s (hover to see current wind gust speed)